Flugplatz Ramstein Air Base

Bericht für ETAR

vom 07.08. um 17:56 UTC

Wind 8 kt aus 100°

Sichtweite 10 km oder mehr

keine Wolken

Temperatur 31.2°C

Taupunkt 14.7°C

Luftfeuchtigkeit 37%

Luftdruck 1019 hPa

ETAR 071756Z AUTO 10008KT 9999 CLR 31/15 A3008 RMK AO2 SLP178 T03120147 10329 20309 56005 FZRANO

Prognose für ETAR

vom 07.08. um 18:00 UTC

Zwischen 18:00 UTC und 09:00 UTC

variable Windrichtung mit 6 kt

Sichtweite 10 km oder mehr

keine Wolken


Am 08.08. zwischen 09:00 und 10:00 UTC übergehend zu

Wind 10 kt aus 110° in Böen 15 kt

Sichtweite 10 km oder mehr

keine Wolken


Am 08.08. zwischen 18:00 und 19:00 UTC übergehend zu

variable Windrichtung mit 6 kt

Sichtweite 10 km oder mehr

keine Wolken

TAF ETAR 071800Z 0718/0824 VRB06KT 9999 SKC QNH3007INS BECMG 0809/0810 11010G15KT 9999 SKC QNH3008INS BECMG 0818/0819 VRB06KT 9999 SKC QNH3010INS TX36/0814Z TN16/0804Z
Impressum